createdAt,value
2022-12-19T00:00:20.293Z,29.800
2022-12-19T00:05:20.241Z,29.800
2022-12-19T00:10:20.243Z,29.800
2022-12-19T00:15:20.287Z,29.803
2022-12-19T00:20:20.133Z,29.803
2022-12-19T00:25:20.369Z,29.803
2022-12-19T00:30:20.836Z,29.807
2022-12-19T00:35:17.190Z,29.807
2022-12-19T00:40:17.217Z,29.807
2022-12-19T00:45:20.428Z,29.804
2022-12-19T00:50:20.333Z,29.804
2022-12-19T00:55:20.450Z,29.804
2022-12-19T01:00:20.458Z,29.802
2022-12-19T01:05:20.442Z,29.802
2022-12-19T01:10:20.404Z,29.802
2022-12-19T01:15:20.395Z,29.804
2022-12-19T01:20:27.663Z,29.804
2022-12-19T01:25:20.401Z,29.804
2022-12-19T01:30:17.273Z,29.807
2022-12-19T01:35:21.160Z,29.807
2022-12-19T01:40:20.609Z,29.807
2022-12-19T01:45:20.513Z,29.810
2022-12-19T01:50:20.545Z,29.810
2022-12-19T01:55:20.528Z,29.810
2022-12-19T02:00:20.468Z,29.811
2022-12-19T02:05:20.489Z,29.811
2022-12-19T02:10:20.547Z,29.811
2022-12-19T02:15:20.536Z,29.811
2022-12-19T02:20:20.376Z,29.811
2022-12-19T02:25:17.438Z,29.811
2022-12-19T02:30:17.453Z,29.815
2022-12-19T02:35:18.597Z,29.815
2022-12-19T02:40:18.575Z,29.815
2022-12-19T02:45:21.983Z,29.817
2022-12-19T02:50:18.701Z,29.817
2022-12-19T02:55:18.588Z,29.817
2022-12-19T03:00:18.524Z,29.826
2022-12-19T03:05:15.570Z,29.826
2022-12-19T03:10:18.696Z,29.826
2022-12-19T03:15:18.723Z,29.828
2022-12-19T03:20:18.664Z,29.828
2022-12-19T03:25:18.865Z,29.828
2022-12-19T03:30:18.660Z,29.835
2022-12-19T03:35:18.598Z,29.835
2022-12-19T03:40:18.705Z,29.835
2022-12-19T03:45:18.760Z,29.838
2022-12-19T03:50:18.757Z,29.838
2022-12-19T03:55:15.720Z,29.838
2022-12-19T04:00:15.837Z,29.841
2022-12-19T04:05:18.844Z,29.841
2022-12-19T04:10:18.901Z,29.841
2022-12-19T04:15:18.759Z,29.842
2022-12-19T04:20:18.744Z,29.842
2022-12-19T04:25:18.755Z,29.842
2022-12-19T04:30:18.954Z,29.842
2022-12-19T04:35:18.850Z,29.842
2022-12-19T04:40:18.904Z,29.842
2022-12-19T04:45:18.869Z,29.841
2022-12-19T04:50:15.788Z,29.841
2022-12-19T04:55:15.859Z,29.841
2022-12-19T05:00:20.381Z,29.842
2022-12-19T05:05:20.214Z,29.842
2022-12-19T05:10:20.232Z,29.842
2022-12-19T05:15:20.188Z,29.849
2022-12-19T05:20:17.113Z,29.849
2022-12-19T05:25:17.098Z,29.849
2022-12-19T05:30:20.261Z,29.849
2022-12-19T05:35:20.265Z,29.849
2022-12-19T05:40:20.288Z,29.849
2022-12-19T05:45:20.248Z,29.849
2022-12-19T05:50:20.253Z,29.849
2022-12-19T05:55:20.278Z,29.849
2022-12-19T06:00:20.378Z,29.853
2022-12-19T06:05:20.330Z,29.853
2022-12-19T06:10:20.380Z,29.853
2022-12-19T06:15:17.122Z,29.858
2022-12-19T06:20:20.341Z,29.858
2022-12-19T06:25:20.381Z,29.858
2022-12-19T06:30:20.379Z,29.861
2022-12-19T06:35:20.395Z,29.861
2022-12-19T06:40:20.330Z,29.861
2022-12-19T06:45:20.495Z,29.871
2022-12-19T06:50:20.444Z,29.871
2022-12-19T06:55:20.544Z,29.871
2022-12-19T07:00:20.847Z,29.873
2022-12-19T07:05:17.308Z,29.873
2022-12-19T07:10:17.301Z,29.873
2022-12-19T07:15:20.419Z,29.875
2022-12-19T07:20:20.626Z,29.875
2022-12-19T07:25:20.417Z,29.875
2022-12-19T07:30:20.481Z,29.886
2022-12-19T07:35:20.545Z,29.886
2022-12-19T07:40:20.492Z,29.886
2022-12-19T07:45:20.562Z,29.888
2022-12-19T07:50:20.718Z,29.888
2022-12-19T07:55:20.482Z,29.888
2022-12-19T08:00:17.617Z,29.886
2022-12-19T08:05:17.401Z,29.886
2022-12-19T08:10:15.547Z,29.886
2022-12-19T08:15:18.467Z,29.888
2022-12-19T08:20:18.584Z,29.888
2022-12-19T08:25:18.919Z,29.888
2022-12-19T08:30:18.703Z,29.888
2022-12-19T08:35:18.601Z,29.888
2022-12-19T08:40:15.557Z,29.888
2022-12-19T08:45:15.474Z,29.889
2022-12-19T08:50:18.824Z,29.889
2022-12-19T08:55:18.687Z,29.889
2022-12-19T09:00:18.761Z,29.892
2022-12-19T09:06:02.284Z,29.892
2022-12-19T09:10:18.597Z,29.892
2022-12-19T09:15:18.783Z,29.896
2022-12-19T09:20:23.179Z,29.896
2022-12-19T09:25:18.781Z,29.896
2022-12-19T09:30:18.755Z,29.902
2022-12-19T09:35:15.792Z,29.902
2022-12-19T09:40:18.780Z,29.902
2022-12-19T09:45:28.192Z,29.903
2022-12-19T09:50:18.795Z,29.903
2022-12-19T09:55:18.845Z,29.903
2022-12-19T10:00:18.925Z,29.904
2022-12-19T10:05:44.350Z,29.904
2022-12-19T10:07:11.126Z,29.904
2022-12-19T10:12:35.345Z,29.904
2022-12-19T10:12:38.769Z,29.904
2022-12-19T10:12:44.542Z,29.904
2022-12-19T10:15:18.866Z,29.907
2022-12-19T10:20:19.141Z,29.907
2022-12-19T10:25:15.810Z,29.907
2022-12-19T10:30:15.845Z,29.915
2022-12-19T10:35:18.914Z,29.915
2022-12-19T10:40:28.411Z,29.915
2022-12-19T10:45:18.927Z,29.919
2022-12-19T10:50:19.032Z,29.919
2022-12-19T10:55:19.039Z,29.919
2022-12-19T11:00:19.079Z,29.920
2022-12-19T11:05:19.098Z,29.920
2022-12-19T11:10:30.798Z,29.920
2022-12-19T11:15:41.520Z,29.920
2022-12-19T11:16:39.253Z,29.920
2022-12-19T11:20:37.452Z,29.926
2022-12-19T11:22:53.210Z,29.926
2022-12-19T11:24:39.824Z,29.926
2022-12-19T11:29:30.142Z,29.926
2022-12-19T11:29:42.049Z,29.926
2022-12-19T11:29:54.651Z,29.926
2022-12-19T11:30:06.586Z,29.926
2022-12-19T11:30:36.057Z,29.926
2022-12-19T11:30:41.123Z,29.926
2022-12-19T11:32:20.519Z,29.925
2022-12-19T11:35:19.399Z,29.925
2022-12-19T11:40:19.153Z,29.925
2022-12-19T11:45:19.092Z,29.930
2022-12-19T11:50:19.277Z,29.930
2022-12-19T11:55:19.069Z,29.930
2022-12-19T12:00:19.112Z,29.933
2022-12-19T12:05:19.155Z,29.933
2022-12-19T12:16:55.023Z,29.933
2022-12-19T12:20:12.824Z,29.933
2022-12-19T12:20:41.743Z,29.933
2022-12-19T12:28:57.242Z,29.935
2022-12-19T12:30:45.061Z,29.935
2022-12-19T12:30:59.652Z,29.935
2022-12-19T12:31:04.473Z,29.935
2022-12-19T12:31:05.879Z,29.935
2022-12-19T12:31:10.657Z,29.935
2022-12-19T12:31:22.236Z,29.935
2022-12-19T12:31:40.357Z,29.935
2022-12-19T12:31:46.583Z,29.935
2022-12-19T12:32:05.404Z,29.935
2022-12-19T12:35:32.898Z,29.935
2022-12-19T12:40:23.651Z,29.935
2022-12-19T12:45:19.294Z,29.937
2022-12-19T12:50:19.269Z,29.937
2022-12-19T12:55:19.306Z,29.937
2022-12-19T13:00:19.308Z,29.942
2022-12-19T13:05:16.179Z,29.942
2022-12-19T13:10:16.173Z,29.942
2022-12-19T13:15:19.392Z,29.947
2022-12-19T13:20:19.265Z,29.947
2022-12-19T13:25:19.376Z,29.947
2022-12-19T13:30:19.318Z,29.948
2022-12-19T13:37:41.048Z,29.948
2022-12-19T13:39:22.663Z,29.948
2022-12-19T13:39:58.422Z,29.948
2022-12-19T13:40:20.883Z,29.948
2022-12-19T13:45:19.370Z,29.953
2022-12-19T13:50:19.432Z,29.953
2022-12-19T13:55:19.373Z,29.953
2022-12-19T14:00:16.371Z,29.952
2022-12-19T14:05:16.214Z,29.952
2022-12-19T14:11:40.636Z,29.952
2022-12-19T14:11:50.547Z,29.952
2022-12-19T14:15:19.478Z,29.964
2022-12-19T14:22:04.134Z,29.964
2022-12-19T14:22:04.468Z,29.964
2022-12-19T14:28:14.997Z,29.964
2022-12-19T14:28:19.581Z,29.964
2022-12-19T14:28:19.732Z,29.964
2022-12-19T14:30:27.534Z,29.965
2022-12-19T14:36:07.383Z,29.965
2022-12-19T14:40:19.503Z,29.965
2022-12-19T14:53:34.019Z,29.964
2022-12-19T14:53:51.899Z,29.964
2022-12-19T14:54:06.895Z,29.964
2022-12-19T14:54:11.748Z,29.964
2022-12-19T14:54:26.677Z,29.964
2022-12-19T14:54:46.883Z,29.964
2022-12-19T14:56:08.717Z,29.964
2022-12-19T14:57:00.344Z,29.964
2022-12-19T15:00:50.668Z,29.962
2022-12-19T15:05:19.640Z,29.962
2022-12-19T15:11:09.507Z,29.962
2022-12-19T15:15:19.688Z,29.955
2022-12-19T15:20:19.652Z,29.955
2022-12-19T15:25:53.115Z,29.955
2022-12-19T15:30:19.644Z,29.955
2022-12-19T15:35:19.617Z,29.955
2022-12-19T15:40:19.631Z,29.955
2022-12-19T15:45:16.544Z,29.955
2022-12-19T15:50:16.629Z,29.955
2022-12-19T15:55:19.698Z,29.955
2022-12-19T16:00:19.727Z,29.953
2022-12-19T16:05:19.772Z,29.953
2022-12-19T16:10:19.790Z,29.953
2022-12-19T16:15:19.686Z,29.955
2022-12-19T16:20:19.701Z,29.955
2022-12-19T16:25:19.790Z,29.955
2022-12-19T16:30:19.868Z,29.949
2022-12-19T16:35:34.262Z,29.949
2022-12-19T16:40:16.673Z,29.949
2022-12-19T16:45:16.655Z,29.948
2022-12-19T16:50:19.813Z,29.948
2022-12-19T16:55:19.839Z,29.948
2022-12-19T17:00:19.793Z,29.935
2022-12-19T17:05:19.864Z,29.935
2022-12-19T17:10:25.652Z,29.935
2022-12-19T17:15:19.843Z,29.934
2022-12-19T17:20:20.079Z,29.934
2022-12-19T17:25:19.861Z,29.934
2022-12-19T17:30:20.058Z,29.934
2022-12-19T17:35:16.810Z,29.934
2022-12-19T17:40:20.000Z,29.934
2022-12-19T17:45:19.956Z,29.935
2022-12-19T17:50:19.936Z,29.935
2022-12-19T17:55:19.828Z,29.935
2022-12-19T18:00:22.822Z,29.934
2022-12-19T18:05:20.044Z,29.934
2022-12-19T18:10:19.977Z,29.934
2022-12-19T18:15:20.010Z,29.942
2022-12-19T18:20:19.937Z,29.942
2022-12-19T18:25:16.957Z,29.942
2022-12-19T18:30:16.905Z,29.945
2022-12-19T18:35:20.074Z,29.945
2022-12-19T18:40:23.442Z,29.945
2022-12-19T18:45:19.993Z,29.946
2022-12-19T18:50:20.082Z,29.946
2022-12-19T18:55:20.161Z,29.946
2022-12-19T19:00:20.025Z,29.950
2022-12-19T19:05:20.108Z,29.950
2022-12-19T19:10:20.044Z,29.950
2022-12-19T19:15:20.118Z,29.951
2022-12-19T19:20:17.036Z,29.951
2022-12-19T19:25:16.996Z,29.951
2022-12-19T19:30:20.136Z,29.960
2022-12-19T19:35:20.148Z,29.960
2022-12-19T19:40:20.180Z,29.960
2022-12-19T19:45:20.140Z,29.959
2022-12-19T19:50:20.292Z,29.959
2022-12-19T19:55:20.213Z,29.959
2022-12-19T20:00:20.152Z,29.964
2022-12-19T20:05:20.214Z,29.964
2022-12-19T20:10:20.257Z,29.964
2022-12-19T20:15:17.116Z,29.966
2022-12-19T20:20:17.208Z,29.966
2022-12-19T20:25:20.402Z,29.966
2022-12-19T20:30:20.259Z,29.968
2022-12-19T20:35:20.308Z,29.968
2022-12-19T20:40:20.238Z,29.968
2022-12-19T20:45:20.273Z,29.973
2022-12-19T20:50:20.229Z,29.973
2022-12-19T20:55:20.303Z,29.973
2022-12-19T21:00:20.165Z,29.973
2022-12-19T21:05:17.368Z,29.973
2022-12-19T21:10:17.276Z,29.973
2022-12-19T21:15:20.317Z,29.979
2022-12-19T21:20:20.386Z,29.979
2022-12-19T21:25:16.217Z,29.979
2022-12-19T21:30:16.266Z,29.980
2022-12-19T21:35:19.651Z,29.980
2022-12-19T21:40:19.362Z,29.980
2022-12-19T21:45:19.413Z,29.984
2022-12-19T21:50:19.403Z,29.984
2022-12-19T21:55:19.411Z,29.984
2022-12-19T22:00:19.432Z,29.993
2022-12-19T22:05:19.550Z,29.993
2022-12-19T22:10:19.563Z,29.993
2022-12-19T22:15:19.403Z,29.995
2022-12-19T22:20:16.232Z,29.995
2022-12-19T22:25:19.510Z,29.995
2022-12-19T22:30:19.567Z,29.997
2022-12-19T22:35:19.511Z,29.997
2022-12-19T22:40:19.524Z,29.997
2022-12-19T22:45:19.541Z,29.997
2022-12-19T22:50:19.778Z,29.997
2022-12-19T22:55:19.553Z,29.997
2022-12-19T23:00:19.642Z,29.999
2022-12-19T23:05:19.649Z,29.999
2022-12-19T23:10:16.425Z,29.999
2022-12-19T23:15:16.453Z,29.999
2022-12-19T23:20:19.799Z,29.999
2022-12-19T23:25:19.583Z,29.999
2022-12-19T23:30:19.589Z,30.001
2022-12-19T23:35:19.675Z,30.001
2022-12-19T23:40:19.672Z,30.001
2022-12-19T23:45:19.629Z,30.002
2022-12-19T23:50:19.602Z,30.002
2022-12-19T23:55:19.672Z,30.002
